sensor_id;sensor_type;location;lat;lon;timestamp;P1;durP1;ratioP1;P2;durP2;ratioP2
25936;SDS011;13733;51.178;4.450;2023-03-16T00:02:04;7.90;;;4.70;;
25936;SDS011;13733;51.178;4.450;2023-03-16T00:04:31;7.95;;;4.05;;
25936;SDS011;13733;51.178;4.450;2023-03-16T00:07:08;7.43;;;4.10;;
25936;SDS011;13733;51.178;4.450;2023-03-16T00:09:35;6.70;;;4.25;;
25936;SDS011;13733;51.178;4.450;2023-03-16T00:12:05;11.45;;;4.57;;
25936;SDS011;13733;51.178;4.450;2023-03-16T00:14:40;5.70;;;4.45;;
25936;SDS011;13733;51.178;4.450;2023-03-16T00:17:08;9.15;;;3.97;;
25936;SDS011;13733;51.178;4.450;2023-03-16T00:19:46;9.50;;;4.38;;
25936;SDS011;13733;51.178;4.450;2023-03-16T00:22:14;6.00;;;3.60;;
25936;SDS011;13733;51.178;4.450;2023-03-16T00:24:40;5.35;;;3.90;;
25936;SDS011;13733;51.178;4.450;2023-03-16T00:27:10;5.90;;;3.80;;
25936;SDS011;13733;51.178;4.450;2023-03-16T00:29:41;9.18;;;4.50;;
25936;SDS011;13733;51.178;4.450;2023-03-16T00:32:12;10.32;;;4.18;;
25936;SDS011;13733;51.178;4.450;2023-03-16T00:34:40;7.57;;;4.10;;
25936;SDS011;13733;51.178;4.450;2023-03-16T00:37:09;9.68;;;4.15;;
25936;SDS011;13733;51.178;4.450;2023-03-16T00:39:39;7.37;;;4.03;;
25936;SDS011;13733;51.178;4.450;2023-03-16T00:42:06;6.85;;;3.90;;
25936;SDS011;13733;51.178;4.450;2023-03-16T00:44:33;9.57;;;4.40;;
25936;SDS011;13733;51.178;4.450;2023-03-16T00:47:00;8.20;;;3.85;;
25936;SDS011;13733;51.178;4.450;2023-03-16T00:49:27;9.70;;;4.20;;
25936;SDS011;13733;51.178;4.450;2023-03-16T00:51:52;8.48;;;3.88;;
25936;SDS011;13733;51.178;4.450;2023-03-16T00:54:20;9.75;;;4.15;;
25936;SDS011;13733;51.178;4.450;2023-03-16T00:56:46;5.95;;;3.45;;
25936;SDS011;13733;51.178;4.450;2023-03-16T00:59:12;8.38;;;3.50;;
25936;SDS011;13733;51.178;4.450;2023-03-16T01:01:39;10.63;;;3.90;;
25936;SDS011;13733;51.178;4.450;2023-03-16T01:04:04;6.07;;;3.60;;
25936;SDS011;13733;51.178;4.450;2023-03-16T01:06:32;7.22;;;3.50;;
25936;SDS011;13733;51.178;4.450;2023-03-16T01:08:57;7.32;;;3.60;;
25936;SDS011;13733;51.178;4.450;2023-03-16T01:11:24;7.57;;;3.53;;
25936;SDS011;13733;51.178;4.450;2023-03-16T01:13:50;10.07;;;3.80;;
25936;SDS011;13733;51.178;4.450;2023-03-16T01:16:18;7.93;;;3.15;;
25936;SDS011;13733;51.178;4.450;2023-03-16T01:18:44;6.85;;;3.17;;
25936;SDS011;13733;51.178;4.450;2023-03-16T01:21:11;8.15;;;3.78;;
25936;SDS011;13733;51.178;4.450;2023-03-16T01:23:40;6.10;;;3.50;;
25936;SDS011;13733;51.178;4.450;2023-03-16T01:26:09;7.68;;;3.50;;
25936;SDS011;13733;51.178;4.450;2023-03-16T01:28:36;6.38;;;3.45;;
25936;SDS011;13733;51.178;4.450;2023-03-16T01:31:04;7.50;;;3.10;;
25936;SDS011;13733;51.178;4.450;2023-03-16T01:33:33;8.13;;;3.67;;
25936;SDS011;13733;51.178;4.450;2023-03-16T01:36:06;7.78;;;3.22;;
25936;SDS011;13733;51.178;4.450;2023-03-16T01:38:43;6.95;;;3.42;;
25936;SDS011;13733;51.178;4.450;2023-03-16T01:41:11;5.57;;;3.30;;
25936;SDS011;13733;51.178;4.450;2023-03-16T01:43:38;7.63;;;3.38;;
25936;SDS011;13733;51.178;4.450;2023-03-16T01:51:32;8.77;;;3.22;;
25936;SDS011;13733;51.178;4.450;2023-03-16T01:54:07;5.15;;;3.22;;
25936;SDS011;13733;51.178;4.450;2023-03-16T01:56:57;7.22;;;3.58;;
25936;SDS011;13733;51.178;4.450;2023-03-16T01:59:35;7.88;;;3.30;;
25936;SDS011;13733;51.178;4.450;2023-03-16T02:02:02;5.47;;;2.75;;
25936;SDS011;13733;51.178;4.450;2023-03-16T02:07:05;7.25;;;3.15;;
25936;SDS011;13733;51.178;4.450;2023-03-16T02:09:38;7.57;;;3.15;;
25936;SDS011;13733;51.178;4.450;2023-03-16T02:12:13;7.45;;;2.72;;
25936;SDS011;13733;51.178;4.450;2023-03-16T02:14:50;7.95;;;3.08;;
25936;SDS011;13733;51.178;4.450;2023-03-16T02:17:24;8.38;;;3.28;;
25936;SDS011;13733;51.178;4.450;2023-03-16T02:22:51;8.52;;;3.65;;
25936;SDS011;13733;51.178;4.450;2023-03-16T02:25:27;4.72;;;2.80;;
25936;SDS011;13733;51.178;4.450;2023-03-16T02:31:09;5.55;;;3.28;;
25936;SDS011;13733;51.178;4.450;2023-03-16T02:33:37;4.95;;;2.85;;
25936;SDS011;13733;51.178;4.450;2023-03-16T02:36:07;8.77;;;3.40;;
25936;SDS011;13733;51.178;4.450;2023-03-16T02:38:33;9.38;;;3.10;;
25936;SDS011;13733;51.178;4.450;2023-03-16T02:41:00;9.25;;;2.90;;
25936;SDS011;13733;51.178;4.450;2023-03-16T02:43:35;7.32;;;2.95;;
25936;SDS011;13733;51.178;4.450;2023-03-16T02:46:22;9.50;;;3.03;;
25936;SDS011;13733;51.178;4.450;2023-03-16T02:48:57;6.40;;;3.13;;
25936;SDS011;13733;51.178;4.450;2023-03-16T02:51:36;5.13;;;2.67;;
25936;SDS011;13733;51.178;4.450;2023-03-16T02:54:02;6.90;;;3.00;;
25936;SDS011;13733;51.178;4.450;2023-03-16T02:56:31;9.40;;;3.10;;
25936;SDS011;13733;51.178;4.450;2023-03-16T02:58:57;9.18;;;2.78;;
25936;SDS011;13733;51.178;4.450;2023-03-16T03:01:24;7.57;;;2.53;;
25936;SDS011;13733;51.178;4.450;2023-03-16T03:03:50;5.15;;;3.22;;
25936;SDS011;13733;51.178;4.450;2023-03-16T03:06:15;9.75;;;3.30;;
25936;SDS011;13733;51.178;4.450;2023-03-16T03:08:41;8.27;;;3.33;;
25936;SDS011;13733;51.178;4.450;2023-03-16T03:11:07;6.15;;;2.72;;
25936;SDS011;13733;51.178;4.450;2023-03-16T03:13:34;8.55;;;2.75;;
25936;SDS011;13733;51.178;4.450;2023-03-16T03:16:02;6.22;;;3.00;;
25936;SDS011;13733;51.178;4.450;2023-03-16T03:18:28;6.40;;;2.88;;
25936;SDS011;13733;51.178;4.450;2023-03-16T03:20:54;5.10;;;2.63;;
25936;SDS011;13733;51.178;4.450;2023-03-16T03:23:20;7.70;;;2.87;;
25936;SDS011;13733;51.178;4.450;2023-03-16T03:25:46;7.43;;;2.80;;
25936;SDS011;13733;51.178;4.450;2023-03-16T03:28:13;4.78;;;2.70;;
25936;SDS011;13733;51.178;4.450;2023-03-16T03:30:40;7.40;;;2.65;;
25936;SDS011;13733;51.178;4.450;2023-03-16T03:33:06;4.25;;;2.63;;
25936;SDS011;13733;51.178;4.450;2023-03-16T03:35:31;6.18;;;2.60;;
25936;SDS011;13733;51.178;4.450;2023-03-16T03:37:57;7.55;;;2.70;;
25936;SDS011;13733;51.178;4.450;2023-03-16T03:40:23;5.63;;;2.67;;
25936;SDS011;13733;51.178;4.450;2023-03-16T03:42:55;6.15;;;2.60;;
25936;SDS011;13733;51.178;4.450;2023-03-16T03:45:22;4.45;;;2.20;;
25936;SDS011;13733;51.178;4.450;2023-03-16T03:47:49;7.20;;;2.92;;
25936;SDS011;13733;51.178;4.450;2023-03-16T03:50:18;6.55;;;2.20;;
25936;SDS011;13733;51.178;4.450;2023-03-16T03:53:05;4.82;;;2.83;;
25936;SDS011;13733;51.178;4.450;2023-03-16T03:55:40;6.53;;;2.55;;
25936;SDS011;13733;51.178;4.450;2023-03-16T03:58:06;8.15;;;3.13;;
25936;SDS011;13733;51.178;4.450;2023-03-16T04:00:32;3.92;;;2.50;;
25936;SDS011;13733;51.178;4.450;2023-03-16T04:02:58;6.53;;;2.40;;
25936;SDS011;13733;51.178;4.450;2023-03-16T04:05:31;4.95;;;2.30;;
25936;SDS011;13733;51.178;4.450;2023-03-16T04:07:58;6.65;;;2.22;;
25936;SDS011;13733;51.178;4.450;2023-03-16T04:10:24;11.35;;;2.97;;
25936;SDS011;13733;51.178;4.450;2023-03-16T04:12:51;8.48;;;3.38;;
25936;SDS011;13733;51.178;4.450;2023-03-16T04:15:18;7.93;;;2.33;;
25936;SDS011;13733;51.178;4.450;2023-03-16T04:18:00;9.07;;;2.60;;
25936;SDS011;13733;51.178;4.450;2023-03-16T04:20:26;7.05;;;2.70;;
25936;SDS011;13733;51.178;4.450;2023-03-16T04:22:54;5.75;;;2.60;;
25936;SDS011;13733;51.178;4.450;2023-03-16T04:25:22;5.50;;;2.50;;
25936;SDS011;13733;51.178;4.450;2023-03-16T04:27:51;8.50;;;2.90;;
25936;SDS011;13733;51.178;4.450;2023-03-16T04:30:18;9.48;;;2.88;;
25936;SDS011;13733;51.178;4.450;2023-03-16T04:35:18;8.35;;;2.63;;
25936;SDS011;13733;51.178;4.450;2023-03-16T04:37:47;7.60;;;3.08;;
25936;SDS011;13733;51.178;4.450;2023-03-16T04:40:14;6.25;;;2.67;;
25936;SDS011;13733;51.178;4.450;2023-03-16T04:42:42;6.82;;;2.50;;
25936;SDS011;13733;51.178;4.450;2023-03-16T04:45:13;10.13;;;2.92;;
25936;SDS011;13733;51.178;4.450;2023-03-16T04:47:42;7.13;;;2.63;;
25936;SDS011;13733;51.178;4.450;2023-03-16T04:50:08;6.85;;;2.88;;
25936;SDS011;13733;51.178;4.450;2023-03-16T04:52:35;15.73;;;3.00;;
25936;SDS011;13733;51.178;4.450;2023-03-16T04:55:01;5.20;;;2.95;;
25936;SDS011;13733;51.178;4.450;2023-03-16T04:57:28;8.40;;;2.50;;
25936;SDS011;13733;51.178;4.450;2023-03-16T04:59:55;6.43;;;2.90;;
25936;SDS011;13733;51.178;4.450;2023-03-16T05:02:32;11.63;;;2.83;;
25936;SDS011;13733;51.178;4.450;2023-03-16T05:04:59;5.80;;;3.15;;
25936;SDS011;13733;51.178;4.450;2023-03-16T05:07:29;9.35;;;3.40;;
25936;SDS011;13733;51.178;4.450;2023-03-16T05:09:58;6.03;;;3.40;;
25936;SDS011;13733;51.178;4.450;2023-03-16T05:12:23;9.25;;;3.63;;
25936;SDS011;13733;51.178;4.450;2023-03-16T05:14:54;10.48;;;3.67;;
25936;SDS011;13733;51.178;4.450;2023-03-16T05:17:50;11.05;;;4.00;;
25936;SDS011;13733;51.178;4.450;2023-03-16T05:20:16;9.85;;;3.83;;
25936;SDS011;13733;51.178;4.450;2023-03-16T05:22:49;8.55;;;3.95;;
25936;SDS011;13733;51.178;4.450;2023-03-16T05:25:21;9.73;;;3.65;;
25936;SDS011;13733;51.178;4.450;2023-03-16T05:27:52;10.40;;;4.15;;
25936;SDS011;13733;51.178;4.450;2023-03-16T05:30:40;10.80;;;3.90;;
25936;SDS011;13733;51.178;4.450;2023-03-16T05:35:36;7.75;;;3.55;;
25936;SDS011;13733;51.178;4.450;2023-03-16T05:38:06;11.48;;;3.30;;
25936;SDS011;13733;51.178;4.450;2023-03-16T05:40:36;7.30;;;3.67;;
25936;SDS011;13733;51.178;4.450;2023-03-16T05:43:11;7.70;;;3.00;;
25936;SDS011;13733;51.178;4.450;2023-03-16T05:45:44;10.02;;;3.25;;
25936;SDS011;13733;51.178;4.450;2023-03-16T05:48:32;7.55;;;3.00;;
25936;SDS011;13733;51.178;4.450;2023-03-16T05:51:00;11.55;;;4.10;;
25936;SDS011;13733;51.178;4.450;2023-03-16T05:53:30;8.73;;;3.00;;
25936;SDS011;13733;51.178;4.450;2023-03-16T05:56:04;8.25;;;3.03;;
25936;SDS011;13733;51.178;4.450;2023-03-16T05:58:32;4.55;;;2.95;;
25936;SDS011;13733;51.178;4.450;2023-03-16T06:00:59;9.30;;;3.25;;
25936;SDS011;13733;51.178;4.450;2023-03-16T06:03:28;11.63;;;3.33;;
25936;SDS011;13733;51.178;4.450;2023-03-16T06:05:57;8.63;;;2.70;;
25936;SDS011;13733;51.178;4.450;2023-03-16T06:08:29;6.45;;;2.92;;
25936;SDS011;13733;51.178;4.450;2023-03-16T06:11:03;8.20;;;3.65;;
25936;SDS011;13733;51.178;4.450;2023-03-16T06:13:29;9.32;;;3.10;;
25936;SDS011;13733;51.178;4.450;2023-03-16T06:15:55;5.63;;;3.00;;
25936;SDS011;13733;51.178;4.450;2023-03-16T06:18:20;14.10;;;3.17;;
25936;SDS011;13733;51.178;4.450;2023-03-16T06:20:46;11.55;;;3.55;;
25936;SDS011;13733;51.178;4.450;2023-03-16T06:23:12;7.20;;;3.00;;
25936;SDS011;13733;51.178;4.450;2023-03-16T06:25:38;8.15;;;3.28;;
25936;SDS011;13733;51.178;4.450;2023-03-16T06:28:05;9.65;;;3.47;;
25936;SDS011;13733;51.178;4.450;2023-03-16T06:30:32;8.07;;;2.80;;
25936;SDS011;13733;51.178;4.450;2023-03-16T06:32:58;6.18;;;2.85;;
25936;SDS011;13733;51.178;4.450;2023-03-16T06:35:25;11.07;;;2.85;;
25936;SDS011;13733;51.178;4.450;2023-03-16T06:38:17;9.20;;;3.45;;
25936;SDS011;13733;51.178;4.450;2023-03-16T06:40:59;10.93;;;3.22;;
25936;SDS011;13733;51.178;4.450;2023-03-16T06:43:25;12.20;;;3.38;;
25936;SDS011;13733;51.178;4.450;2023-03-16T06:45:51;5.05;;;2.50;;
25936;SDS011;13733;51.178;4.450;2023-03-16T06:48:18;8.65;;;3.00;;
25936;SDS011;13733;51.178;4.450;2023-03-16T06:50:44;8.63;;;2.88;;
25936;SDS011;13733;51.178;4.450;2023-03-16T06:53:10;5.78;;;2.28;;
25936;SDS011;13733;51.178;4.450;2023-03-16T06:55:36;7.63;;;2.55;;
25936;SDS011;13733;51.178;4.450;2023-03-16T06:58:02;8.57;;;2.60;;
25936;SDS011;13733;51.178;4.450;2023-03-16T07:00:28;6.90;;;2.25;;
25936;SDS011;13733;51.178;4.450;2023-03-16T07:02:55;5.65;;;2.42;;
25936;SDS011;13733;51.178;4.450;2023-03-16T07:05:21;10.68;;;2.70;;
25936;SDS011;13733;51.178;4.450;2023-03-16T07:07:48;7.03;;;2.60;;
25936;SDS011;13733;51.178;4.450;2023-03-16T07:10:14;9.27;;;2.88;;
25936;SDS011;13733;51.178;4.450;2023-03-16T07:12:41;4.75;;;2.30;;
25936;SDS011;13733;51.178;4.450;2023-03-16T07:15:09;6.32;;;2.60;;
25936;SDS011;13733;51.178;4.450;2023-03-16T07:17:36;6.45;;;2.42;;
25936;SDS011;13733;51.178;4.450;2023-03-16T07:20:04;5.70;;;2.60;;
25936;SDS011;13733;51.178;4.450;2023-03-16T07:22:34;6.43;;;2.33;;
25936;SDS011;13733;51.178;4.450;2023-03-16T07:25:00;5.85;;;2.55;;
25936;SDS011;13733;51.178;4.450;2023-03-16T07:27:27;5.40;;;2.50;;
25936;SDS011;13733;51.178;4.450;2023-03-16T07:29:55;6.00;;;2.53;;
25936;SDS011;13733;51.178;4.450;2023-03-16T07:32:21;5.75;;;2.67;;
25936;SDS011;13733;51.178;4.450;2023-03-16T07:34:47;6.57;;;2.50;;
25936;SDS011;13733;51.178;4.450;2023-03-16T07:37:13;7.80;;;2.28;;
25936;SDS011;13733;51.178;4.450;2023-03-16T07:39:42;7.30;;;2.22;;
25936;SDS011;13733;51.178;4.450;2023-03-16T07:42:14;6.78;;;2.25;;
25936;SDS011;13733;51.178;4.450;2023-03-16T07:44:58;6.05;;;2.35;;
25936;SDS011;13733;51.178;4.450;2023-03-16T07:47:24;4.13;;;1.95;;
25936;SDS011;13733;51.178;4.450;2023-03-16T07:49:52;3.70;;;1.80;;
25936;SDS011;13733;51.178;4.450;2023-03-16T07:52:18;6.45;;;2.42;;
25936;SDS011;13733;51.178;4.450;2023-03-16T07:54:45;6.30;;;2.40;;
25936;SDS011;13733;51.178;4.450;2023-03-16T07:57:12;7.82;;;2.45;;
25936;SDS011;13733;51.178;4.450;2023-03-16T07:59:40;5.40;;;1.95;;
25936;SDS011;13733;51.178;4.450;2023-03-16T08:02:10;5.80;;;1.98;;
25936;SDS011;13733;51.178;4.450;2023-03-16T08:07:08;5.65;;;2.35;;
25936;SDS011;13733;51.178;4.450;2023-03-16T08:09:49;4.47;;;2.40;;
25936;SDS011;13733;51.178;4.450;2023-03-16T08:12:21;6.30;;;2.20;;
25936;SDS011;13733;51.178;4.450;2023-03-16T08:14:47;7.57;;;2.30;;
25936;SDS011;13733;51.178;4.450;2023-03-16T08:17:16;7.38;;;2.30;;
25936;SDS011;13733;51.178;4.450;2023-03-16T08:19:44;8.85;;;2.20;;
25936;SDS011;13733;51.178;4.450;2023-03-16T08:22:10;5.80;;;2.00;;
25936;SDS011;13733;51.178;4.450;2023-03-16T08:24:40;6.53;;;2.40;;
25936;SDS011;13733;51.178;4.450;2023-03-16T08:27:08;3.55;;;1.83;;
25936;SDS011;13733;51.178;4.450;2023-03-16T08:29:37;4.72;;;2.20;;
25936;SDS011;13733;51.178;4.450;2023-03-16T08:32:05;5.63;;;2.00;;
25936;SDS011;13733;51.178;4.450;2023-03-16T08:34:37;3.13;;;1.92;;
25936;SDS011;13733;51.178;4.450;2023-03-16T08:37:04;4.20;;;2.08;;
25936;SDS011;13733;51.178;4.450;2023-03-16T08:39:31;4.78;;;1.92;;
25936;SDS011;13733;51.178;4.450;2023-03-16T08:41:58;7.35;;;2.15;;
25936;SDS011;13733;51.178;4.450;2023-03-16T08:44:32;7.43;;;2.33;;
25936;SDS011;13733;51.178;4.450;2023-03-16T08:46:58;8.15;;;2.28;;
25936;SDS011;13733;51.178;4.450;2023-03-16T08:49:24;3.88;;;2.13;;
25936;SDS011;13733;51.178;4.450;2023-03-16T08:51:59;5.45;;;2.10;;
25936;SDS011;13733;51.178;4.450;2023-03-16T08:54:25;4.43;;;2.10;;
25936;SDS011;13733;51.178;4.450;2023-03-16T08:56:51;5.80;;;1.88;;
25936;SDS011;13733;51.178;4.450;2023-03-16T08:59:17;5.68;;;2.20;;
25936;SDS011;13733;51.178;4.450;2023-03-16T09:01:42;5.13;;;1.88;;
25936;SDS011;13733;51.178;4.450;2023-03-16T09:04:08;4.70;;;1.77;;
25936;SDS011;13733;51.178;4.450;2023-03-16T09:06:35;4.88;;;2.00;;
25936;SDS011;13733;51.178;4.450;2023-03-16T09:09:01;5.55;;;1.73;;
25936;SDS011;13733;51.178;4.450;2023-03-16T09:11:28;5.57;;;1.88;;
25936;SDS011;13733;51.178;4.450;2023-03-16T09:13:58;5.63;;;1.88;;
25936;SDS011;13733;51.178;4.450;2023-03-16T09:16:24;5.93;;;2.13;;
25936;SDS011;13733;51.178;4.450;2023-03-16T09:18:50;6.63;;;2.08;;
25936;SDS011;13733;51.178;4.450;2023-03-16T09:21:17;8.60;;;2.17;;
25936;SDS011;13733;51.178;4.450;2023-03-16T09:23:44;3.95;;;1.70;;
25936;SDS011;13733;51.178;4.450;2023-03-16T09:26:10;5.88;;;1.80;;
25936;SDS011;13733;51.178;4.450;2023-03-16T09:28:37;6.28;;;1.77;;
25936;SDS011;13733;51.178;4.450;2023-03-16T09:31:06;6.00;;;1.70;;
25936;SDS011;13733;51.178;4.450;2023-03-16T09:33:33;6.45;;;1.90;;
25936;SDS011;13733;51.178;4.450;2023-03-16T09:36:00;5.38;;;1.92;;
25936;SDS011;13733;51.178;4.450;2023-03-16T09:38:27;5.57;;;1.55;;
25936;SDS011;13733;51.178;4.450;2023-03-16T09:40:56;8.45;;;1.92;;
25936;SDS011;13733;51.178;4.450;2023-03-16T09:46:58;4.55;;;1.80;;
25936;SDS011;13733;51.178;4.450;2023-03-16T09:49:27;10.27;;;2.08;;
25936;SDS011;13733;51.178;4.450;2023-03-16T09:52:19;4.30;;;1.38;;
25936;SDS011;13733;51.178;4.450;2023-03-16T09:57:26;5.82;;;1.70;;
25936;SDS011;13733;51.178;4.450;2023-03-16T10:00:13;6.93;;;1.80;;
25936;SDS011;13733;51.178;4.450;2023-03-16T10:05:41;4.65;;;1.80;;
25936;SDS011;13733;51.178;4.450;2023-03-16T10:16:19;5.45;;;1.90;;
25936;SDS011;13733;51.178;4.450;2023-03-16T10:18:52;7.53;;;1.85;;
25936;SDS011;13733;51.178;4.450;2023-03-16T10:21:42;7.15;;;1.50;;
25936;SDS011;13733;51.178;4.450;2023-03-16T10:26:56;9.40;;;1.70;;
25936;SDS011;13733;51.178;4.450;2023-03-16T10:29:28;8.25;;;1.67;;
25936;SDS011;13733;51.178;4.450;2023-03-16T10:31:58;5.75;;;1.70;;
25936;SDS011;13733;51.178;4.450;2023-03-16T10:34:35;7.28;;;1.52;;
25936;SDS011;13733;51.178;4.450;2023-03-16T10:37:01;9.10;;;1.58;;
25936;SDS011;13733;51.178;4.450;2023-03-16T10:39:34;5.88;;;1.63;;
25936;SDS011;13733;51.178;4.450;2023-03-16T10:42:01;6.63;;;1.63;;
25936;SDS011;13733;51.178;4.450;2023-03-16T10:44:27;3.60;;;1.50;;
25936;SDS011;13733;51.178;4.450;2023-03-16T10:47:01;3.55;;;1.70;;
25936;SDS011;13733;51.178;4.450;2023-03-16T10:49:39;6.90;;;1.55;;
25936;SDS011;13733;51.178;4.450;2023-03-16T10:52:17;8.82;;;1.83;;
25936;SDS011;13733;51.178;4.450;2023-03-16T10:54:48;3.63;;;1.65;;
25936;SDS011;13733;51.178;4.450;2023-03-16T10:59:58;3.75;;;1.58;;
25936;SDS011;13733;51.178;4.450;2023-03-16T11:02:32;9.07;;;1.77;;
25936;SDS011;13733;51.178;4.450;2023-03-16T11:05:44;6.32;;;1.58;;
25936;SDS011;13733;51.178;4.450;2023-03-16T11:08:04;3.10;;;1.60;;
25936;SDS011;13733;51.178;4.450;2023-03-16T11:10:34;4.28;;;1.60;;
25936;SDS011;13733;51.178;4.450;2023-03-16T11:13:10;3.53;;;1.50;;
25936;SDS011;13733;51.178;4.450;2023-03-16T11:18:34;5.20;;;1.60;;
25936;SDS011;13733;51.178;4.450;2023-03-16T11:24:36;4.72;;;1.63;;
25936;SDS011;13733;51.178;4.450;2023-03-16T11:30:15;4.75;;;1.38;;
25936;SDS011;13733;51.178;4.450;2023-03-16T11:32:50;2.08;;;1.23;;
25936;SDS011;13733;51.178;4.450;2023-03-16T11:40:57;7.25;;;1.85;;
25936;SDS011;13733;51.178;4.450;2023-03-16T11:43:35;4.60;;;1.77;;
25936;SDS011;13733;51.178;4.450;2023-03-16T11:54:39;5.97;;;1.65;;
25936;SDS011;13733;51.178;4.450;2023-03-16T11:59:58;4.53;;;1.50;;
25936;SDS011;13733;51.178;4.450;2023-03-16T12:15:53;4.75;;;1.42;;
25936;SDS011;13733;51.178;4.450;2023-03-16T12:20:58;5.82;;;1.67;;
25936;SDS011;13733;51.178;4.450;2023-03-16T12:26:07;4.15;;;1.30;;
25936;SDS011;13733;51.178;4.450;2023-03-16T12:28:33;7.78;;;1.30;;
25936;SDS011;13733;51.178;4.450;2023-03-16T12:38:55;2.47;;;1.17;;
25936;SDS011;13733;51.178;4.450;2023-03-16T12:44:08;4.32;;;1.40;;
25936;SDS011;13733;51.178;4.450;2023-03-16T12:49:49;4.70;;;1.20;;
25936;SDS011;13733;51.178;4.450;2023-03-16T12:52:16;6.20;;;1.25;;
25936;SDS011;13733;51.178;4.450;2023-03-16T12:54:49;1.83;;;1.17;;
25936;SDS011;13733;51.178;4.450;2023-03-16T12:57:16;8.18;;;1.88;;
25936;SDS011;13733;51.178;4.450;2023-03-16T12:59:44;4.60;;;1.30;;
25936;SDS011;13733;51.178;4.450;2023-03-16T13:02:15;7.13;;;1.45;;
25936;SDS011;13733;51.178;4.450;2023-03-16T13:04:44;1.55;;;1.05;;
25936;SDS011;13733;51.178;4.450;2023-03-16T13:07:17;5.85;;;1.40;;
25936;SDS011;13733;51.178;4.450;2023-03-16T13:12:34;4.10;;;1.42;;
25936;SDS011;13733;51.178;4.450;2023-03-16T13:15:47;2.40;;;1.20;;
25936;SDS011;13733;51.178;4.450;2023-03-16T13:17:49;4.38;;;1.35;;
25936;SDS011;13733;51.178;4.450;2023-03-16T13:20:28;4.15;;;1.45;;
25936;SDS011;13733;51.178;4.450;2023-03-16T13:23:16;3.63;;;1.23;;
25936;SDS011;13733;51.178;4.450;2023-03-16T13:26:00;4.03;;;1.20;;
25936;SDS011;13733;51.178;4.450;2023-03-16T13:28:31;6.55;;;1.35;;
25936;SDS011;13733;51.178;4.450;2023-03-16T13:33:27;3.70;;;1.17;;
25936;SDS011;13733;51.178;4.450;2023-03-16T13:35:55;2.55;;;1.33;;
25936;SDS011;13733;51.178;4.450;2023-03-16T13:38:23;3.63;;;1.33;;
25936;SDS011;13733;51.178;4.450;2023-03-16T13:40:56;2.63;;;1.03;;
25936;SDS011;13733;51.178;4.450;2023-03-16T13:43:42;4.82;;;1.50;;
25936;SDS011;13733;51.178;4.450;2023-03-16T13:46:15;5.75;;;1.50;;
25936;SDS011;13733;51.178;4.450;2023-03-16T13:48:42;4.93;;;1.73;;
25936;SDS011;13733;51.178;4.450;2023-03-16T13:51:18;4.03;;;1.17;;
25936;SDS011;13733;51.178;4.450;2023-03-16T13:53:46;6.50;;;1.40;;
25936;SDS011;13733;51.178;4.450;2023-03-16T13:56:16;4.32;;;1.40;;
25936;SDS011;13733;51.178;4.450;2023-03-16T13:58:54;8.10;;;1.30;;
25936;SDS011;13733;51.178;4.450;2023-03-16T14:01:25;5.18;;;1.38;;
25936;SDS011;13733;51.178;4.450;2023-03-16T14:03:54;3.40;;;1.30;;
25936;SDS011;13733;51.178;4.450;2023-03-16T14:06:24;8.73;;;1.30;;
25936;SDS011;13733;51.178;4.450;2023-03-16T14:08:55;6.07;;;1.40;;
25936;SDS011;13733;51.178;4.450;2023-03-16T14:11:28;3.58;;;1.23;;
25936;SDS011;13733;51.178;4.450;2023-03-16T14:13:55;2.85;;;1.48;;
25936;SDS011;13733;51.178;4.450;2023-03-16T14:16:25;2.50;;;1.15;;
25936;SDS011;13733;51.178;4.450;2023-03-16T14:21:26;1.83;;;1.10;;
25936;SDS011;13733;51.178;4.450;2023-03-16T14:23:58;4.95;;;1.52;;
25936;SDS011;13733;51.178;4.450;2023-03-16T14:26:38;3.08;;;1.15;;
25936;SDS011;13733;51.178;4.450;2023-03-16T14:29:28;4.95;;;1.50;;
25936;SDS011;13733;51.178;4.450;2023-03-16T14:31:55;3.63;;;1.30;;
25936;SDS011;13733;51.178;4.450;2023-03-16T14:34:29;3.40;;;1.50;;
25936;SDS011;13733;51.178;4.450;2023-03-16T14:37:07;1.90;;;1.13;;
25936;SDS011;13733;51.178;4.450;2023-03-16T14:39:37;3.78;;;1.40;;
25936;SDS011;13733;51.178;4.450;2023-03-16T14:42:05;4.65;;;1.23;;
25936;SDS011;13733;51.178;4.450;2023-03-16T14:44:39;2.55;;;1.08;;
25936;SDS011;13733;51.178;4.450;2023-03-16T14:47:06;3.50;;;1.35;;
25936;SDS011;13733;51.178;4.450;2023-03-16T14:49:33;5.97;;;1.45;;
25936;SDS011;13733;51.178;4.450;2023-03-16T14:52:14;5.20;;;1.73;;
25936;SDS011;13733;51.178;4.450;2023-03-16T14:54:49;2.25;;;1.20;;
25936;SDS011;13733;51.178;4.450;2023-03-16T14:57:16;4.00;;;1.30;;
25936;SDS011;13733;51.178;4.450;2023-03-16T14:59:43;3.53;;;1.15;;
25936;SDS011;13733;51.178;4.450;2023-03-16T15:02:20;2.17;;;1.30;;
25936;SDS011;13733;51.178;4.450;2023-03-16T15:04:51;1.70;;;1.02;;
25936;SDS011;13733;51.178;4.450;2023-03-16T15:07:21;3.05;;;1.20;;
25936;SDS011;13733;51.178;4.450;2023-03-16T15:10:05;7.43;;;1.50;;
25936;SDS011;13733;51.178;4.450;2023-03-16T15:12:46;3.45;;;1.60;;
25936;SDS011;13733;51.178;4.450;2023-03-16T15:15:18;4.55;;;1.38;;
25936;SDS011;13733;51.178;4.450;2023-03-16T15:17:47;3.08;;;1.20;;
25936;SDS011;13733;51.178;4.450;2023-03-16T15:20:18;3.65;;;1.33;;
25936;SDS011;13733;51.178;4.450;2023-03-16T15:22:59;2.70;;;1.30;;
25936;SDS011;13733;51.178;4.450;2023-03-16T15:30:47;5.32;;;1.38;;
25936;SDS011;13733;51.178;4.450;2023-03-16T15:33:15;2.10;;;1.10;;
25936;SDS011;13733;51.178;4.450;2023-03-16T15:35:41;4.32;;;1.30;;
25936;SDS011;13733;51.178;4.450;2023-03-16T15:38:50;5.80;;;1.50;;
25936;SDS011;13733;51.178;4.450;2023-03-16T15:40:59;2.13;;;1.25;;
25936;SDS011;13733;51.178;4.450;2023-03-16T15:43:26;2.85;;;1.50;;
25936;SDS011;13733;51.178;4.450;2023-03-16T15:45:56;1.88;;;1.20;;
25936;SDS011;13733;51.178;4.450;2023-03-16T15:48:24;2.38;;;1.40;;
25936;SDS011;13733;51.178;4.450;2023-03-16T15:51:16;4.22;;;1.40;;
25936;SDS011;13733;51.178;4.450;2023-03-16T15:56:12;3.60;;;1.27;;
25936;SDS011;13733;51.178;4.450;2023-03-16T15:58:44;3.22;;;1.52;;
25936;SDS011;13733;51.178;4.450;2023-03-16T16:01:24;5.57;;;1.77;;
25936;SDS011;13733;51.178;4.450;2023-03-16T16:03:52;2.78;;;1.33;;
25936;SDS011;13733;51.178;4.450;2023-03-16T16:06:19;5.10;;;1.50;;
25936;SDS011;13733;51.178;4.450;2023-03-16T16:08:46;4.65;;;1.27;;
25936;SDS011;13733;51.178;4.450;2023-03-16T16:11:15;2.40;;;1.55;;
25936;SDS011;13733;51.178;4.450;2023-03-16T16:13:45;2.70;;;1.52;;
25936;SDS011;13733;51.178;4.450;2023-03-16T16:16:12;4.90;;;1.60;;
25936;SDS011;13733;51.178;4.450;2023-03-16T16:18:39;4.82;;;1.95;;
25936;SDS011;13733;51.178;4.450;2023-03-16T16:21:06;6.20;;;1.67;;
25936;SDS011;13733;51.178;4.450;2023-03-16T16:23:38;3.53;;;1.67;;
25936;SDS011;13733;51.178;4.450;2023-03-16T16:26:06;3.22;;;1.60;;
25936;SDS011;13733;51.178;4.450;2023-03-16T16:28:39;4.18;;;1.70;;
25936;SDS011;13733;51.178;4.450;2023-03-16T16:31:07;4.88;;;1.42;;
25936;SDS011;13733;51.178;4.450;2023-03-16T16:33:37;1.92;;;1.30;;
25936;SDS011;13733;51.178;4.450;2023-03-16T16:36:03;3.45;;;1.40;;
25936;SDS011;13733;51.178;4.450;2023-03-16T16:38:31;2.60;;;1.50;;
25936;SDS011;13733;51.178;4.450;2023-03-16T16:41:01;2.05;;;1.50;;
25936;SDS011;13733;51.178;4.450;2023-03-16T16:45:59;2.22;;;1.48;;
25936;SDS011;13733;51.178;4.450;2023-03-16T16:51:00;4.13;;;1.60;;
25936;SDS011;13733;51.178;4.450;2023-03-16T16:53:27;2.30;;;1.40;;
25936;SDS011;13733;51.178;4.450;2023-03-16T16:55:54;4.13;;;1.50;;
25936;SDS011;13733;51.178;4.450;2023-03-16T16:58:21;4.03;;;1.30;;
25936;SDS011;13733;51.178;4.450;2023-03-16T17:00:49;5.55;;;1.80;;
25936;SDS011;13733;51.178;4.450;2023-03-16T17:05:50;2.75;;;1.80;;
25936;SDS011;13733;51.178;4.450;2023-03-16T17:08:17;2.05;;;1.45;;
25936;SDS011;13733;51.178;4.450;2023-03-16T17:10:43;3.33;;;1.65;;
25936;SDS011;13733;51.178;4.450;2023-03-16T17:13:31;3.83;;;1.50;;